createdAt,value
2023-11-12T00:00:41.332Z,99547.47
2023-11-12T00:03:08.527Z,99547.09
2023-11-12T00:05:35.886Z,99553.50
2023-11-12T00:08:03.216Z,99556.59
2023-11-12T00:10:30.246Z,99557.78
2023-11-12T00:12:57.241Z,99546.44
2023-11-12T00:15:24.283Z,99561.09
2023-11-12T00:17:51.195Z,99559.75
2023-11-12T00:20:19.285Z,99562.09
2023-11-12T00:22:46.704Z,99571.91
2023-11-12T00:25:15.154Z,99575.38
2023-11-12T00:27:42.566Z,99563.34
2023-11-12T00:30:10.718Z,99565.22
2023-11-12T00:32:38.342Z,99558.81
2023-11-12T00:35:06.918Z,99569.03
2023-11-12T00:37:34.850Z,99575.59
2023-11-12T00:40:01.760Z,99570.16
2023-11-12T00:42:28.671Z,99569.34
2023-11-12T00:44:57.132Z,99560.13
2023-11-12T00:47:24.243Z,99566.97
2023-11-12T00:49:51.332Z,99569.56
2023-11-12T00:52:19.183Z,99573.75
2023-11-12T00:54:46.342Z,99571.59
2023-11-12T00:57:13.217Z,99567.84
2023-11-12T00:59:40.343Z,99574.41
2023-11-12T01:02:07.389Z,99571.53
2023-11-12T01:04:34.363Z,99575.91
2023-11-12T01:07:01.737Z,99569.69
2023-11-12T01:09:29.847Z,99562.91
2023-11-12T01:11:56.726Z,99576.81
2023-11-12T01:14:24.409Z,99569.25
2023-11-12T01:16:51.358Z,99567.00
2023-11-12T01:19:18.309Z,99573.00
2023-11-12T01:21:45.366Z,99573.44
2023-11-12T01:24:12.483Z,99569.94
2023-11-12T01:26:39.934Z,99581.47
2023-11-12T01:29:07.134Z,99582.50
2023-11-12T01:31:34.019Z,99585.88
2023-11-12T01:34:01.629Z,99594.03
2023-11-12T01:36:28.910Z,99587.72
2023-11-12T01:38:56.012Z,99593.16
2023-11-12T01:41:22.933Z,99580.09
2023-11-12T01:43:50.209Z,99577.47
2023-11-12T01:46:20.301Z,99578.28
2023-11-12T01:48:49.111Z,99572.63
2023-11-12T01:51:17.422Z,99577.56
2023-11-12T01:53:44.624Z,99585.97
2023-11-12T01:56:13.904Z,99576.31
2023-11-12T01:58:41.769Z,99584.84
2023-11-12T02:01:08.778Z,99578.25
2023-11-12T02:03:37.536Z,99578.84
2023-11-12T02:06:08.250Z,99585.75
2023-11-12T02:08:37.260Z,99580.78
2023-11-12T02:11:09.219Z,99586.50
2023-11-12T02:13:43.593Z,99589.44
2023-11-12T02:16:11.750Z,99601.31
2023-11-12T02:18:38.837Z,99605.09
2023-11-12T02:21:06.026Z,99617.22
2023-11-12T02:23:38.048Z,99616.69
2023-11-12T02:26:05.364Z,99620.16
2023-11-12T02:28:32.261Z,99621.81
2023-11-12T02:30:59.897Z,99627.59
2023-11-12T02:33:29.213Z,99614.78
2023-11-12T02:35:57.352Z,99618.09
2023-11-12T02:38:25.392Z,99612.34
2023-11-12T02:40:53.063Z,99620.44
2023-11-12T02:43:21.273Z,99613.84
2023-11-12T02:45:49.325Z,99603.19
2023-11-12T02:48:16.439Z,99610.78
2023-11-12T02:50:44.746Z,99603.59
2023-11-12T02:53:13.592Z,99605.94
2023-11-12T02:55:40.791Z,99602.75
2023-11-12T02:58:07.756Z,99599.47
2023-11-12T03:00:35.157Z,99607.16
2023-11-12T03:03:03.315Z,99605.66
2023-11-12T03:05:32.268Z,99604.53
2023-11-12T03:07:59.831Z,99606.88
2023-11-12T03:10:27.240Z,99613.78
2023-11-12T03:12:55.538Z,99627.31
2023-11-12T03:15:25.711Z,99629.13
2023-11-12T03:17:53.116Z,99630.63
2023-11-12T03:20:20.072Z,99630.91
2023-11-12T03:22:48.132Z,99644.16
2023-11-12T03:25:15.215Z,99645.13
2023-11-12T03:27:42.458Z,99643.59
2023-11-12T03:30:14.732Z,99641.41
2023-11-12T03:32:41.886Z,99649.16
2023-11-12T03:35:09.871Z,99660.31
2023-11-12T03:37:36.842Z,99663.75
2023-11-12T03:40:05.810Z,99665.97
2023-11-12T03:42:33.334Z,99662.81
2023-11-12T03:45:00.500Z,99657.56
2023-11-12T03:47:27.533Z,99669.56
2023-11-12T03:49:54.537Z,99665.97
2023-11-12T03:52:21.596Z,99667.63
2023-11-12T03:54:48.489Z,99669.53
2023-11-12T03:57:15.988Z,99669.66
2023-11-12T03:59:43.223Z,99672.28
2023-11-12T04:02:10.385Z,99678.91
2023-11-12T04:04:37.591Z,99676.84
2023-11-12T04:07:04.973Z,99686.91
2023-11-12T04:09:32.126Z,99676.44
2023-11-12T04:11:59.270Z,99680.94
2023-11-12T04:14:26.559Z,99682.03
2023-11-12T04:16:53.438Z,99680.25
2023-11-12T04:19:20.521Z,99684.97
2023-11-12T04:21:49.046Z,99697.06
2023-11-12T04:24:16.237Z,99689.09
2023-11-12T04:26:43.538Z,99686.59
2023-11-12T04:29:11.043Z,99684.97
2023-11-12T04:31:38.152Z,99692.13
2023-11-12T04:34:05.482Z,99700.63
2023-11-12T04:36:36.999Z,99695.81
2023-11-12T04:39:05.138Z,99703.13
2023-11-12T04:41:32.165Z,99711.50
2023-11-12T04:44:00.916Z,99718.25
2023-11-12T04:46:29.312Z,99723.81
2023-11-12T04:48:56.475Z,99723.41
2023-11-12T04:51:23.753Z,99737.72
2023-11-12T04:53:50.720Z,99737.56
2023-11-12T04:56:17.757Z,99746.78
2023-11-12T04:58:44.752Z,99729.69
2023-11-12T05:01:11.609Z,99737.66
2023-11-12T05:03:39.148Z,99735.59
2023-11-12T05:06:06.888Z,99737.88
2023-11-12T05:08:34.206Z,99752.72
2023-11-12T05:11:01.236Z,99745.03
2023-11-12T05:13:28.778Z,99749.31
2023-11-12T05:15:55.893Z,99740.88
2023-11-12T05:18:23.032Z,99748.16
2023-11-12T05:20:50.379Z,99743.88
2023-11-12T05:23:17.957Z,99749.13
2023-11-12T05:25:46.700Z,99749.94
2023-11-12T05:28:14.016Z,99764.91
2023-11-12T05:30:41.109Z,99758.59
2023-11-12T05:33:08.605Z,99766.19
2023-11-12T05:35:35.607Z,99763.97
2023-11-12T05:38:02.472Z,99773.03
2023-11-12T05:40:30.829Z,99770.44
2023-11-12T05:42:59.103Z,99772.22
2023-11-12T05:45:26.148Z,99770.28
2023-11-12T05:47:53.300Z,99773.59
2023-11-12T05:50:20.509Z,99775.00
2023-11-12T05:52:47.426Z,99785.19
2023-11-12T05:55:15.139Z,99779.72
2023-11-12T05:57:42.901Z,99788.28
2023-11-12T06:00:13.909Z,99796.81
2023-11-12T06:02:40.972Z,99792.03
2023-11-12T06:05:08.770Z,99802.94
2023-11-12T06:07:35.718Z,99806.25
2023-11-12T06:10:03.076Z,99806.56
2023-11-12T06:12:30.496Z,99809.03
2023-11-12T06:15:11.536Z,99814.72
2023-11-12T06:17:39.770Z,99813.50
2023-11-12T06:20:08.372Z,99827.28
2023-11-12T06:22:35.320Z,99821.78
2023-11-12T06:25:02.425Z,99834.59
2023-11-12T06:27:29.361Z,99835.88
2023-11-12T06:29:56.287Z,99827.66
2023-11-12T06:32:23.894Z,99837.81
2023-11-12T06:34:50.808Z,99832.34
2023-11-12T06:37:17.704Z,99829.47
2023-11-12T06:39:45.252Z,99835.13
2023-11-12T06:42:12.239Z,99832.53
2023-11-12T06:44:40.272Z,99849.81
2023-11-12T06:47:08.115Z,99845.69
2023-11-12T06:49:35.054Z,99849.03
2023-11-12T06:52:03.062Z,99856.22
2023-11-12T06:54:30.220Z,99857.63
2023-11-12T06:56:57.598Z,99856.97
2023-11-12T06:59:24.610Z,99859.34
2023-11-12T07:01:51.848Z,99848.72
2023-11-12T07:04:19.266Z,99844.19
2023-11-12T07:07:01.292Z,99846.25
2023-11-12T07:09:35.447Z,99843.66
2023-11-12T07:12:02.358Z,99856.63
2023-11-12T07:14:29.221Z,99861.31
2023-11-12T07:16:56.550Z,99850.13
2023-11-12T07:19:24.139Z,99856.03
2023-11-12T07:21:51.321Z,99853.25
2023-11-12T07:24:19.042Z,99859.69
2023-11-12T07:26:45.993Z,99862.00
2023-11-12T07:29:16.391Z,99862.38
2023-11-12T07:31:44.561Z,99864.97
2023-11-12T07:34:11.587Z,99864.13
2023-11-12T07:36:38.893Z,99864.06
2023-11-12T07:39:06.266Z,99862.66
2023-11-12T07:41:34.368Z,99858.84
2023-11-12T07:44:01.569Z,99862.09
2023-11-12T07:46:28.677Z,99867.28
2023-11-12T07:48:55.688Z,99862.66
2023-11-12T07:51:23.632Z,99866.59
2023-11-12T07:53:52.475Z,99863.91
2023-11-12T07:56:19.414Z,99872.38
2023-11-12T07:58:47.489Z,99876.97
2023-11-12T08:01:14.717Z,99886.31
2023-11-12T08:03:41.697Z,99877.53
2023-11-12T08:06:10.827Z,99882.91
2023-11-12T08:08:38.483Z,99883.03
2023-11-12T08:11:05.510Z,99886.84
2023-11-12T08:13:32.441Z,99883.78
2023-11-12T08:15:59.701Z,99884.38
2023-11-12T08:18:27.290Z,99887.25
2023-11-12T08:20:56.338Z,99892.75
2023-11-12T08:23:23.483Z,99884.38
2023-11-12T08:25:50.590Z,99880.63
2023-11-12T08:28:22.758Z,99885.75
2023-11-12T08:30:50.273Z,99885.63
2023-11-12T08:33:17.252Z,99883.84
2023-11-12T08:35:44.314Z,99892.09
2023-11-12T08:38:11.505Z,99896.09
2023-11-12T08:40:43.155Z,99893.59
2023-11-12T08:43:14.514Z,99897.72
2023-11-12T08:45:41.488Z,99902.16
2023-11-12T08:48:08.544Z,99894.88
2023-11-12T08:50:35.583Z,99902.28
2023-11-12T08:53:03.313Z,99906.25
2023-11-12T08:55:30.484Z,99898.78
2023-11-12T08:57:57.656Z,99904.22
2023-11-12T09:00:24.992Z,99904.50
2023-11-12T09:02:52.607Z,99897.69
2023-11-12T09:05:20.182Z,99902.59
2023-11-12T09:07:48.168Z,99913.00
2023-11-12T09:10:15.678Z,99911.09
2023-11-12T09:12:42.552Z,99917.88
2023-11-12T09:15:11.300Z,99918.84
2023-11-12T09:17:38.801Z,99916.56
2023-11-12T09:20:07.280Z,99925.31
2023-11-12T09:22:34.845Z,99933.19
2023-11-12T09:25:09.487Z,99936.53
2023-11-12T09:27:40.165Z,99937.06
2023-11-12T09:30:09.924Z,99933.31
2023-11-12T09:32:40.253Z,99943.97
2023-11-12T09:35:09.841Z,99933.50
2023-11-12T09:37:36.940Z,99935.09
2023-11-12T09:40:09.331Z,99936.78
2023-11-12T09:42:39.932Z,99928.97
2023-11-12T09:45:09.426Z,99931.94
2023-11-12T09:47:52.829Z,99935.09
2023-11-12T09:50:22.051Z,99923.91
2023-11-12T09:52:51.005Z,99929.03
2023-11-12T09:55:19.439Z,99924.84
2023-11-12T09:57:47.493Z,99934.09
2023-11-12T10:00:15.428Z,99931.16
2023-11-12T10:02:42.382Z,99937.16
2023-11-12T10:05:12.761Z,99934.84
2023-11-12T10:07:40.004Z,99940.28
2023-11-12T10:10:28.879Z,99940.34
2023-11-12T10:12:56.608Z,99928.22
2023-11-12T10:15:27.300Z,99928.75
2023-11-12T10:17:58.494Z,99933.63
2023-11-12T10:20:29.248Z,99929.59
2023-11-12T10:22:56.423Z,99927.25
2023-11-12T10:25:44.433Z,99924.94
2023-11-12T10:28:12.980Z,99925.91
2023-11-12T10:30:41.173Z,99931.41
2023-11-12T10:33:21.993Z,99924.50
2023-11-12T10:35:49.000Z,99920.44
2023-11-12T10:38:19.851Z,99924.06
2023-11-12T10:41:04.783Z,99920.16
2023-11-12T10:43:32.520Z,99913.59
2023-11-12T10:46:02.013Z,99916.84
2023-11-12T10:48:36.854Z,99916.50
2023-11-12T10:51:08.475Z,99910.28
2023-11-12T10:53:39.031Z,99906.72
2023-11-12T10:56:11.658Z,99904.84
2023-11-12T10:58:39.045Z,99901.50
2023-11-12T11:01:08.903Z,99911.63
2023-11-12T11:03:36.315Z,99896.81
2023-11-12T11:06:05.181Z,99904.97
2023-11-12T11:08:32.911Z,99901.78
2023-11-12T11:11:02.152Z,99905.97
2023-11-12T11:13:29.640Z,99909.50
2023-11-12T11:15:58.290Z,99902.53
2023-11-12T11:18:34.508Z,99903.47
2023-11-12T11:21:04.337Z,99893.66
2023-11-12T11:23:43.795Z,99905.28
2023-11-12T11:26:40.867Z,99895.22
2023-11-12T11:29:17.141Z,99903.72
2023-11-12T11:31:56.266Z,99894.78
2023-11-12T11:34:40.673Z,99904.75
2023-11-12T11:37:09.130Z,99907.47
2023-11-12T11:39:37.016Z,99903.91
2023-11-12T11:42:08.259Z,99905.84
2023-11-12T11:44:47.340Z,99914.16
2023-11-12T11:47:17.649Z,99911.25
2023-11-12T11:50:00.329Z,99916.75
2023-11-12T11:52:29.268Z,99906.56
2023-11-12T11:55:09.921Z,99909.69
2023-11-12T11:57:47.894Z,99906.84
2023-11-12T12:00:18.148Z,99905.00
2023-11-12T12:02:46.885Z,99902.44
2023-11-12T12:05:16.807Z,99899.13
2023-11-12T12:07:47.525Z,99900.59
2023-11-12T12:10:28.331Z,99897.22
2023-11-12T12:12:55.892Z,99896.59
2023-11-12T12:15:23.046Z,99894.94
2023-11-12T12:17:50.084Z,99897.69
2023-11-12T12:20:17.463Z,99897.41
2023-11-12T12:22:44.688Z,99900.16
2023-11-12T12:25:12.114Z,99891.91
2023-11-12T12:27:39.302Z,99891.09
2023-11-12T12:30:09.438Z,99893.09
2023-11-12T12:32:39.148Z,99895.69
2023-11-12T12:35:08.171Z,99891.19
2023-11-12T12:37:37.011Z,99895.50
2023-11-12T12:40:18.701Z,99885.16
2023-11-12T12:42:45.863Z,99889.63
2023-11-12T12:45:20.609Z,99886.69
2023-11-12T12:47:47.640Z,99883.06
2023-11-12T12:50:27.553Z,99881.03
2023-11-12T12:53:15.185Z,99884.03
2023-11-12T12:55:45.289Z,99880.28
2023-11-12T12:58:13.079Z,99891.09
2023-11-12T13:00:42.401Z,99893.13
2023-11-12T13:03:23.011Z,99890.19
2023-11-12T13:05:51.507Z,99881.97
2023-11-12T13:08:20.841Z,99893.03
2023-11-12T13:10:50.014Z,99884.78
2023-11-12T13:13:20.538Z,99890.72
2023-11-12T13:15:51.038Z,99894.84
2023-11-12T13:18:19.335Z,99897.69
2023-11-12T13:20:47.019Z,99893.94
2023-11-12T13:23:14.168Z,99905.81
2023-11-12T13:25:43.487Z,99900.34
2023-11-12T13:28:13.350Z,99902.09
2023-11-12T13:30:40.969Z,99902.25
2023-11-12T13:33:09.216Z,99906.03
2023-11-12T13:35:36.541Z,99901.97
2023-11-12T13:38:03.777Z,99900.44
2023-11-12T13:40:31.994Z,99904.72
2023-11-12T13:42:59.046Z,99910.09
2023-11-12T13:45:26.594Z,99907.72
2023-11-12T13:47:55.822Z,99912.31
2023-11-12T13:50:26.372Z,99906.72
2023-11-12T13:53:00.161Z,99909.75
2023-11-12T13:55:30.633Z,99909.19
2023-11-12T13:58:01.480Z,99910.09
2023-11-12T14:00:32.096Z,99907.16
2023-11-12T14:03:02.554Z,99913.56
2023-11-12T14:05:29.686Z,99911.47
2023-11-12T14:07:57.710Z,99920.28
2023-11-12T14:10:26.556Z,99920.81
2023-11-12T14:12:54.268Z,99923.03
2023-11-12T14:15:23.685Z,99919.25
2023-11-12T14:17:50.945Z,99925.75
2023-11-12T14:20:23.883Z,99930.09
2023-11-12T14:22:52.498Z,99932.44
2023-11-12T14:25:22.999Z,99932.28
2023-11-12T14:27:51.143Z,99932.50
2023-11-12T14:30:20.209Z,99931.56
2023-11-12T14:32:47.755Z,99927.47
2023-11-12T14:35:17.697Z,99930.03
2023-11-12T14:37:45.546Z,99932.16
2023-11-12T14:40:16.356Z,99931.31
2023-11-12T14:42:43.751Z,99927.44
2023-11-12T14:45:21.762Z,99926.63
2023-11-12T14:47:56.151Z,99928.88
2023-11-12T14:50:23.358Z,99925.56
2023-11-12T14:52:52.381Z,99934.25
2023-11-12T14:55:24.896Z,99925.84
2023-11-12T14:57:56.633Z,99934.00
2023-11-12T15:00:29.949Z,99938.31
2023-11-12T15:03:01.921Z,99926.28
2023-11-12T15:05:29.942Z,99931.91
2023-11-12T15:07:57.192Z,99927.44
2023-11-12T15:10:24.670Z,99933.41
2023-11-12T15:12:52.446Z,99936.53
2023-11-12T15:15:21.199Z,99934.31
2023-11-12T15:17:49.040Z,99936.13
2023-11-12T15:20:16.090Z,99938.75
2023-11-12T15:22:45.605Z,99941.69
2023-11-12T15:25:16.526Z,99931.25
2023-11-12T15:27:47.657Z,99938.31
2023-11-12T15:30:15.240Z,99940.88
2023-11-12T15:32:46.591Z,99937.97
2023-11-12T15:35:15.360Z,99949.41
2023-11-12T15:37:42.801Z,99943.84
2023-11-12T15:40:22.153Z,99945.22
2023-11-12T15:42:51.283Z,99946.50
2023-11-12T15:45:20.425Z,99939.50
2023-11-12T15:47:48.733Z,99942.59
2023-11-12T15:50:18.078Z,99947.69
2023-11-12T15:52:46.105Z,99943.97
2023-11-12T15:55:14.238Z,99945.81
2023-11-12T15:57:42.844Z,99942.75
2023-11-12T16:00:15.783Z,99942.09
2023-11-12T16:02:44.387Z,99944.38
2023-11-12T16:05:12.368Z,99939.34
2023-11-12T16:07:41.920Z,99938.28
2023-11-12T16:10:12.381Z,99946.63
2023-11-12T16:12:40.224Z,99943.91
2023-11-12T16:15:13.609Z,99944.34
2023-11-12T16:17:42.013Z,99945.03
2023-11-12T16:20:14.086Z,99945.03
2023-11-12T16:22:41.503Z,99941.44
2023-11-12T16:25:11.877Z,99940.63
2023-11-12T16:27:42.148Z,99933.56
2023-11-12T16:30:10.146Z,99941.94
2023-11-12T16:32:39.824Z,99951.22
2023-11-12T16:35:07.731Z,99952.09
2023-11-12T16:37:34.802Z,99961.56
2023-11-12T16:40:02.424Z,99958.50
2023-11-12T16:42:29.972Z,99958.78
2023-11-12T16:44:58.096Z,99965.28
2023-11-12T16:47:25.309Z,99958.22
2023-11-12T16:49:55.200Z,99974.25
2023-11-12T16:52:22.293Z,99975.63
2023-11-12T16:54:49.200Z,99978.66
2023-11-12T16:57:16.128Z,99980.28
2023-11-12T16:59:43.647Z,99983.84
2023-11-12T17:02:12.379Z,99985.34
2023-11-12T17:04:40.021Z,99987.66
2023-11-12T17:07:12.589Z,99983.78
2023-11-12T17:09:42.382Z,99999.06
2023-11-12T17:12:09.429Z,99996.69
2023-11-12T17:14:37.296Z,99999.88
2023-11-12T17:17:04.527Z,100003.97
2023-11-12T17:19:31.905Z,100009.34
2023-11-12T17:21:59.420Z,100007.13
2023-11-12T17:24:26.282Z,100010.66
2023-11-12T17:26:53.394Z,100008.78
2023-11-12T17:29:22.554Z,100012.88
2023-11-12T17:31:51.915Z,100019.22
2023-11-12T17:34:20.342Z,100016.00
2023-11-12T17:36:48.168Z,100012.13
2023-11-12T17:39:17.612Z,100012.13
2023-11-12T17:41:48.998Z,100015.56
2023-11-12T17:44:16.929Z,100015.81
2023-11-12T17:46:46.373Z,100015.00
2023-11-12T17:49:14.279Z,100010.72
2023-11-12T17:51:42.871Z,100011.16
2023-11-12T17:54:10.099Z,100009.97
2023-11-12T17:56:37.491Z,100014.22
2023-11-12T17:59:04.657Z,100016.94
2023-11-12T18:01:31.637Z,100019.41
2023-11-12T18:04:00.857Z,100014.59
2023-11-12T18:06:28.383Z,100015.31
2023-11-12T18:08:57.055Z,100011.72
2023-11-12T18:11:24.257Z,100017.09
2023-11-12T18:13:51.607Z,100022.91
2023-11-12T18:16:21.524Z,100019.53
2023-11-12T18:18:48.437Z,100018.47
2023-11-12T18:21:16.848Z,100028.44
2023-11-12T18:23:44.378Z,100025.41
2023-11-12T18:26:11.399Z,100029.25
2023-11-12T18:28:38.992Z,100034.22
2023-11-12T18:31:07.076Z,100032.00
2023-11-12T18:33:34.518Z,100028.13
2023-11-12T18:36:01.505Z,100023.97
2023-11-12T18:38:28.969Z,100029.59
2023-11-12T18:40:56.203Z,100028.50
2023-11-12T18:43:23.893Z,100034.63
2023-11-12T18:45:54.934Z,100043.41
2023-11-12T18:48:22.388Z,100036.25
2023-11-12T18:50:52.061Z,100040.41
2023-11-12T18:53:19.792Z,100034.63
2023-11-12T18:55:46.809Z,100038.44
2023-11-12T18:58:18.103Z,100033.09
2023-11-12T19:00:46.017Z,100035.13
2023-11-12T19:03:13.148Z,100043.63
2023-11-12T19:05:40.202Z,100041.09
2023-11-12T19:08:10.754Z,100044.94
2023-11-12T19:10:38.735Z,100042.38
2023-11-12T19:13:06.041Z,100045.69
2023-11-12T19:15:33.062Z,100039.91
2023-11-12T19:18:00.429Z,100043.84
2023-11-12T19:20:27.720Z,100041.72
2023-11-12T19:22:55.125Z,100042.56
2023-11-12T19:25:22.273Z,100045.22
2023-11-12T19:27:49.334Z,100053.47
2023-11-12T19:30:17.306Z,100048.84
2023-11-12T19:32:46.153Z,100058.78
2023-11-12T19:35:17.116Z,100057.34
2023-11-12T19:37:45.659Z,100050.19
2023-11-12T19:40:18.290Z,100055.13
2023-11-12T19:42:48.674Z,100058.91
2023-11-12T19:45:17.921Z,100048.75
2023-11-12T19:47:44.901Z,100050.19
2023-11-12T19:50:12.925Z,100058.28
2023-11-12T19:52:40.262Z,100050.03
2023-11-12T19:55:12.893Z,100053.09
2023-11-12T19:57:41.682Z,100046.44
2023-11-12T20:00:12.129Z,100044.25
2023-11-12T20:02:40.108Z,100053.50
2023-11-12T20:05:08.169Z,100055.88
2023-11-12T20:07:35.149Z,100050.97
2023-11-12T20:10:04.037Z,100052.22
2023-11-12T20:12:31.182Z,100060.03
2023-11-12T20:14:58.163Z,100064.63
2023-11-12T20:17:25.041Z,100063.28
2023-11-12T20:19:52.116Z,100053.22
2023-11-12T20:22:19.381Z,100061.78
2023-11-12T20:24:47.373Z,100058.66
2023-11-12T20:27:16.640Z,100071.66
2023-11-12T20:29:44.917Z,100061.84
2023-11-12T20:32:16.710Z,100071.25
2023-11-12T20:34:46.970Z,100061.47
2023-11-12T20:37:15.037Z,100072.63
2023-11-12T20:39:42.259Z,100071.94
2023-11-12T20:42:10.776Z,100070.84
2023-11-12T20:44:40.934Z,100071.00
2023-11-12T20:47:09.161Z,100076.50
2023-11-12T20:49:36.287Z,100078.13
2023-11-12T20:52:03.551Z,100077.31
2023-11-12T20:54:30.535Z,100066.94
2023-11-12T20:56:57.466Z,100077.59
2023-11-12T20:59:28.220Z,100080.31
2023-11-12T21:01:55.836Z,100074.63
2023-11-12T21:04:22.973Z,100088.72
2023-11-12T21:06:49.985Z,100090.63
2023-11-12T21:09:16.960Z,100091.84
2023-11-12T21:11:48.467Z,100086.03
2023-11-12T21:14:16.512Z,100091.41
2023-11-12T21:16:44.659Z,100094.97
2023-11-12T21:19:11.892Z,100085.47
2023-11-12T21:21:41.811Z,100092.25
2023-11-12T21:24:10.507Z,100093.78
2023-11-12T21:26:38.475Z,100087.69
2023-11-12T21:29:05.592Z,100092.09
2023-11-12T21:31:32.667Z,100085.22
2023-11-12T21:33:59.884Z,100091.66
2023-11-12T21:36:27.649Z,100082.13
2023-11-12T21:38:54.531Z,100091.66
2023-11-12T21:41:21.482Z,100089.72
2023-11-12T21:43:48.614Z,100088.78
2023-11-12T21:46:17.147Z,100083.53
2023-11-12T21:48:44.460Z,100080.09
2023-11-12T21:51:11.643Z,100073.31
2023-11-12T21:53:39.144Z,100075.25
2023-11-12T21:56:08.919Z,100070.84
2023-11-12T21:58:36.660Z,100067.50
2023-11-12T22:01:03.928Z,100073.31
2023-11-12T22:03:31.342Z,100070.84
2023-11-12T22:05:58.277Z,100067.22
2023-11-12T22:08:25.127Z,100075.25
2023-11-12T22:10:52.142Z,100075.94
2023-11-12T22:13:20.059Z,100066.16
2023-11-12T22:15:49.207Z,100072.81
2023-11-12T22:18:16.271Z,100067.41
2023-11-12T22:20:43.456Z,100064.28
2023-11-12T22:23:12.383Z,100061.69
2023-11-12T22:25:40.367Z,100059.06
2023-11-12T22:28:07.926Z,100058.22
2023-11-12T22:30:34.964Z,100052.72
2023-11-12T22:33:01.913Z,100058.91
2023-11-12T22:35:29.052Z,100058.22
2023-11-12T22:37:56.283Z,100056.28
2023-11-12T22:40:24.818Z,100056.28
2023-11-12T22:42:53.708Z,100059.88
2023-11-12T22:45:21.100Z,100056.03
2023-11-12T22:47:48.434Z,100058.53
2023-11-12T22:50:18.589Z,100045.88
2023-11-12T22:52:45.839Z,100046.16
2023-11-12T22:55:13.479Z,100050.31
2023-11-12T22:57:41.507Z,100057.78
2023-11-12T23:00:42.239Z,100057.50
2023-11-12T23:03:12.175Z,100063.19
2023-11-12T23:05:39.401Z,100061.72
2023-11-12T23:08:08.915Z,100053.31
2023-11-12T23:10:36.761Z,100059.28
2023-11-12T23:13:04.688Z,100054.19
2023-11-12T23:15:34.757Z,100048.28
2023-11-12T23:18:02.153Z,100044.97
2023-11-12T23:20:29.750Z,100045.56
2023-11-12T23:22:56.802Z,100052.47
2023-11-12T23:25:24.016Z,100053.31
2023-11-12T23:27:50.994Z,100050.81
2023-11-12T23:30:18.647Z,100053.44
2023-11-12T23:32:46.156Z,100052.47
2023-11-12T23:35:13.221Z,100050.38
2023-11-12T23:37:40.133Z,100053.44
2023-11-12T23:40:08.603Z,100055.50
2023-11-12T23:42:35.720Z,100050.81
2023-11-12T23:45:02.966Z,100051.34
2023-11-12T23:47:30.099Z,100041.41
2023-11-12T23:49:57.031Z,100048.31
2023-11-12T23:52:24.329Z,100044.59
2023-11-12T23:54:51.283Z,100049.16
2023-11-12T23:57:18.506Z,100052.47
2023-11-12T23:59:46.127Z,100047.88
